Stations météo

réclame
Mon MeteoGroup
Nieuw Beerta aws, Pays-Bas (6286): Température de l'air & dewpoint: 11.02.2019 13:00:00 - 17.02.2019 13:00:00 (CET)Nieuw Beerta aws, Pays-Bas (6286): Température de l'air 5cm & Température de l'air -5cm: 11.02.2019 13:00:00 - 17.02.2019 13:00:00 (CET)Nieuw Beerta aws, Pays-Bas (6286): Température de l'air -20cm & Température de l'air -100cm: 11.02.2019 13:00:00 - 17.02.2019 13:00:00 (CET)Nieuw Beerta aws, Pays-Bas (6286): Vitesse du vent & gusts: 11.02.2019 13:00:00 - 17.02.2019 13:00:00 (CET)Nieuw Beerta aws, Pays-Bas (6286): Direction du vent: 11.02.2019 13:00:00 - 17.02.2019 13:00:00 (CET)Nieuw Beerta aws, Pays-Bas (6286): Quantités de précipitations: 11.02.2019 13:00:00 - 17.02.2019 13:00:00 (CET)
Date & Time tt [°C] td [°C] tt 5cm [°C] tt -5cm [°C] tt -20cm [°C] tt -100cm [°C] ff [km/h] ff [knt] fx [km/h] fx [knt] dd rr [mm]
17.02.2019 13:00:00 12,0 4,4 12,6 5,3 4,6 6,5 17 9 - - S -
17.02.2019 12:00:00 10,7 4,1 11,4 4,6 4,5 6,5 18 10 25 14 S 0,0
17.02.2019 11:00:00 8,5 3,9 8,7 4,0 4,5 6,5 18 10 25 14 S 0,0
17.02.2019 10:00:00 6,2 3,3 5,8 3,6 4,6 6,5 14 8 22 12 SSE 0,0
17.02.2019 09:00:00 2,8 1,4 1,9 3,6 4,7 6,5 11 6 14 8 SSE 0,0
17.02.2019 08:00:00 2,1 0,9 0,6 3,7 4,8 6,5 14 8 18 10 SSE 0,0
17.02.2019 07:00:00 1,8 1,0 0,7 3,9 4,9 6,4 14 8 18 10 SSE 0,0
17.02.2019 06:00:00 2,5 1,8 1,7 4,1 4,9 6,4 14 8 18 10 SSE 0,0
17.02.2019 05:00:00 2,6 2,1 1,3 4,3 5,0 6,4 11 6 14 8 SSE 0,0
17.02.2019 04:00:00 3,0 2,5 2,2 4,5 5,1 6,4 11 6 11 6 S 0,0
17.02.2019 03:00:00 3,6 2,9 2,4 4,7 5,1 6,4 11 6 14 8 S 0,0
17.02.2019 02:00:00 3,7 2,9 2,8 4,9 5,2 6,4 11 6 11 6 S 0,0
17.02.2019 01:00:00 4,9 3,8 4,0 5,1 5,2 6,4 11 6 18 10 S 0,0
17.02.2019 00:00:00 5,6 4,3 4,3 5,4 5,2 6,4 11 6 14 8 S 0,0
16.02.2019 23:00:00 7,5 6,1 6,7 5,6 5,1 6,4 7 4 18 10 SSW 0,0
16.02.2019 22:00:00 9,1 7,4 8,6 5,6 5,1 6,4 14 8 14 8 SSW 0,0
16.02.2019 21:00:00 9,1 7,0 8,5 5,6 5,0 6,4 11 6 14 8 SW 0,0
16.02.2019 20:00:00 9,3 6,7 8,8 5,6 5,0 6,4 11 6 18 10 SSW 0,0
16.02.2019 19:00:00 9,0 6,6 8,2 5,7 4,9 6,4 11 6 14 8 SSW 0,0
16.02.2019 18:00:00 10,1 7,0 9,4 5,8 4,7 6,4 11 6 18 10 SSW 0,0
16.02.2019 17:00:00 10,4 6,6 9,6 6,0 4,6 6,4 14 8 32 18 WSW 0,0
16.02.2019 16:00:00 12,4 6,4 11,9 6,0 4,4 6,4 22 12 29 16 WSW 0,0
16.02.2019 15:00:00 12,9 7,1 12,8 5,7 4,2 6,4 18 10 29 16 SSW 0,0
16.02.2019 14:00:00 12,5 7,1 12,9 5,2 4,0 6,4 22 12 29 16 SSW 0,0
16.02.2019 13:00:00 11,6 6,0 12,2 4,5 3,8 6,4 22 12 29 16 SSW 0,0
16.02.2019 12:00:00 10,0 4,8 10,6 3,7 3,8 6,4 22 12 29 16 SSW 0,0
16.02.2019 11:00:00 8,0 3,5 8,3 3,0 3,7 6,4 18 10 32 18 SSW 0,0
16.02.2019 10:00:00 5,6 2,0 5,5 2,6 3,8 6,4 18 10 25 14 SSW 0,0
16.02.2019 09:00:00 3,2 0,5 2,6 2,5 3,8 6,4 14 8 22 12 SSW 0,0
16.02.2019 08:00:00 2,3 -0,2 1,1 2,6 3,9 6,4 14 8 22 12 SSW 0,0
16.02.2019 07:00:00 3,0 -0,1 1,7 2,7 4,0 6,4 18 10 25 14 SSW 0,0
16.02.2019 06:00:00 3,1 0,0 2,1 2,8 4,0 6,4 18 10 25 14 S 0,0
16.02.2019 05:00:00 3,5 0,1 2,2 2,9 4,1 6,4 14 8 25 14 S 0,0
16.02.2019 04:00:00 4,6 0,4 3,3 2,9 4,1 6,4 18 10 25 14 S 0,0
16.02.2019 03:00:00 5,2 0,5 3,0 3,0 4,2 6,4 22 12 25 14 S 0,0
16.02.2019 02:00:00 3,4 0,7 1,8 3,1 4,3 6,4 14 8 22 12 S 0,0
16.02.2019 01:00:00 4,1 1,3 2,2 3,2 4,4 6,4 14 8 18 10 S 0,0
16.02.2019 00:00:00 5,3 2,0 2,9 3,3 4,4 6,4 14 8 18 10 S 0,0
15.02.2019 23:00:00 3,6 1,1 0,1 3,5 4,5 6,4 14 8 14 8 S 0,0
15.02.2019 22:00:00 2,8 1,1 -0,1 3,8 4,6 6,4 4 2 11 6 SSW 0,0
15.02.2019 21:00:00 4,4 1,7 1,6 4,1 4,6 6,4 7 4 14 8 SSE 0,0
15.02.2019 20:00:00 5,8 2,3 3,0 4,3 4,6 6,4 14 8 14 8 SSE 0,0
15.02.2019 19:00:00 6,2 2,4 3,9 4,6 4,6 6,4 11 6 14 8 SSE 0,0
15.02.2019 18:00:00 8,1 3,2 5,7 5,0 4,5 6,4 11 6 14 8 SSE 0,0
15.02.2019 17:00:00 11,9 5,2 10,5 5,2 4,4 6,4 11 6 14 8 SSE 0,0
15.02.2019 16:00:00 13,3 4,4 12,7 5,3 4,2 6,4 11 6 18 10 SSE 0,0
15.02.2019 15:00:00 13,4 3,6 13,2 5,1 4,0 6,4 14 8 18 10 S 0,0
15.02.2019 14:00:00 12,9 2,6 13,4 4,5 3,8 6,4 18 10 22 12 S 0,0
15.02.2019 13:00:00 11,7 2,0 12,1 3,8 3,7 6,4 18 10 25 14 S 0,0
15.02.2019 12:00:00 9,4 1,8 10,2 2,9 3,7 6,4 14 8 22 12 S 0,0
15.02.2019 11:00:00 7,3 0,5 7,8 2,2 3,8 6,4 7 4 14 8 S 0,0
15.02.2019 10:00:00 4,9 0,3 4,4 2,1 3,9 6,4 11 6 14 8 S 0,0
15.02.2019 09:00:00 2,0 -1,4 -0,3 2,1 4,0 6,4 11 6 14 8 S 0,0
15.02.2019 08:00:00 -0,7 -2,9 -3,0 2,2 4,1 6,4 11 6 11 6 SSE 0,0
15.02.2019 07:00:00 -0,5 -2,5 -2,2 2,3 4,2 6,4 7 4 11 6 S 0,0
15.02.2019 06:00:00 0,2 -2,2 -3,3 2,5 4,3 6,4 7 4 11 6 SSE 0,0
15.02.2019 05:00:00 0,0 -2,0 -2,9 2,7 4,4 6,4 7 4 11 6 S 0,0
15.02.2019 04:00:00 -0,1 -1,8 -2,6 2,9 4,5 6,4 11 6 14 8 S 0,0
15.02.2019 03:00:00 0,5 -1,3 -1,7 3,1 4,6 6,4 7 4 11 6 S 0,0
15.02.2019 02:00:00 0,6 -1,3 -1,3 3,3 4,8 6,4 11 6 11 6 SSE 0,0
15.02.2019 01:00:00 1,1 -0,8 -0,4 3,5 4,9 6,4 11 6 11 6 S 0,0
15.02.2019 00:00:00 1,6 -0,4 -0,4 3,7 5,0 6,4 7 4 11 6 S 0,0
14.02.2019 23:00:00 1,8 0,0 0,0 3,9 5,1 6,3 7 4 11 6 S 0,0
14.02.2019 22:00:00 2,4 0,4 0,5 4,2 5,2 6,3 11 6 11 6 S 0,0
14.02.2019 21:00:00 3,2 0,7 1,1 4,5 5,2 6,3 11 6 11 6 S 0,0
14.02.2019 20:00:00 3,9 1,5 1,7 4,8 5,3 6,3 11 6 14 8 S 0,0
14.02.2019 19:00:00 5,4 2,3 3,3 5,2 5,3 6,3 11 6 14 8 S 0,0
14.02.2019 18:00:00 6,7 3,4 4,8 5,6 5,2 6,3 11 6 14 8 S 0,0
14.02.2019 17:00:00 9,0 4,5 8,4 5,9 5,2 6,3 11 6 18 10 SW 0,0
14.02.2019 16:00:00 10,3 3,9 10,0 6,0 5,0 6,3 14 8 22 12 SSW 0,0
14.02.2019 15:00:00 10,6 4,2 10,8 5,9 4,9 6,3 18 10 25 14 SW 0,0
14.02.2019 14:00:00 9,9 4,2 10,5 5,5 4,8 6,3 18 10 25 14 SSW 0,0
14.02.2019 13:00:00 8,8 4,0 9,9 5,0 4,7 6,3 18 10 25 14 SSW 0,0
14.02.2019 12:00:00 7,4 3,9 8,1 4,4 4,6 6,3 18 10 25 14 SSW 0,0
14.02.2019 11:00:00 5,8 3,3 6,6 3,9 4,7 6,3 18 10 25 14 SSW 0,0
14.02.2019 10:00:00 3,9 2,2 4,1 3,6 4,7 6,3 18 10 22 12 SSW 0,0
14.02.2019 09:00:00 1,9 1,0 1,3 3,6 4,8 6,3 14 8 18 10 S 0,0
14.02.2019 08:00:00 1,2 0,4 0,6 3,7 4,9 6,3 14 8 22 12 SSW 0,0
14.02.2019 07:00:00 1,9 0,9 1,3 3,9 5,0 6,3 14 8 29 16 S 0,0
14.02.2019 06:00:00 2,3 1,2 1,9 4,0 5,1 6,3 25 14 29 16 SSW 0,0
14.02.2019 05:00:00 2,5 1,4 1,6 4,1 5,2 6,3 14 8 18 10 S 0,0
14.02.2019 04:00:00 2,1 1,2 1,4 4,3 5,3 6,3 11 6 18 10 S 0,0
14.02.2019 03:00:00 2,5 1,6 1,9 4,4 5,4 6,3 14 8 22 12 SSW 0,0
14.02.2019 02:00:00 2,6 1,8 2,1 4,7 5,4 6,3 14 8 22 12 SSW 0,0
14.02.2019 01:00:00 3,3 2,2 2,7 4,8 5,5 6,3 18 10 22 12 SSW 0,0
14.02.2019 00:00:00 3,7 2,6 3,1 5,0 5,6 6,3 14 8 25 14 S 0,0
13.02.2019 23:00:00 3,8 2,8 3,3 5,3 5,6 6,3 18 10 22 12 SSW 0,0
13.02.2019 22:00:00 4,3 3,3 3,7 5,5 5,7 6,3 14 8 22 12 S 0,0
13.02.2019 21:00:00 5,0 3,8 4,4 5,8 5,7 6,3 14 8 22 12 SSW 0,0
13.02.2019 20:00:00 5,8 4,5 5,4 6,0 5,7 6,3 18 10 29 16 SSW 0,0
13.02.2019 19:00:00 6,8 5,1 6,6 6,1 5,7 6,2 22 12 29 16 SSW 0,0
13.02.2019 18:00:00 7,3 5,1 6,8 6,3 5,6 6,2 22 12 29 16 SW 0,0
13.02.2019 17:00:00 7,7 5,7 7,5 6,4 5,6 6,2 22 12 32 18 SW 0,0
13.02.2019 16:00:00 8,1 6,2 8,1 6,4 5,5 6,2 25 14 32 18 SW 0,0
13.02.2019 15:00:00 7,9 6,2 8,1 6,3 5,4 6,2 22 12 36 19 SW 0,0
13.02.2019 14:00:00 8,0 6,8 8,1 6,1 5,3 6,2 25 14 32 18 SW 0,0
13.02.2019 13:00:00 8,1 6,6 8,1 5,9 5,2 6,2 25 14 36 19 SW 0,0
13.02.2019 12:00:00 7,8 6,6 7,8 5,7 5,2 6,2 22 12 32 18 SW 0,0
13.02.2019 11:00:00 7,2 6,6 7,2 5,4 5,1 6,2 22 12 32 18 SW 0,0
13.02.2019 10:00:00 6,6 6,0 6,6 5,3 5,1 6,2 22 12 32 18 SW 0,0
13.02.2019 09:00:00 6,5 5,9 6,4 5,2 5,1 6,2 18 10 25 14 SW 0,0
13.02.2019 08:00:00 6,8 5,6 6,6 5,1 5,0 6,2 18 10 29 16 SW 0,0
13.02.2019 07:00:00 6,8 5,5 6,6 5,1 5,0 6,2 22 12 36 19 WSW 0,0
13.02.2019 06:00:00 6,5 5,3 6,3 5,0 5,0 6,2 22 12 29 16 SW 0,0
13.02.2019 05:00:00 6,6 5,3 6,3 5,0 5,0 6,2 22 12 29 16 SW 0,0
13.02.2019 04:00:00 6,5 5,3 6,3 4,9 5,0 6,2 22 12 32 18 SW 0,0
13.02.2019 03:00:00 6,4 5,1 6,1 4,9 5,0 6,2 25 14 36 19 SW 0,0
13.02.2019 02:00:00 6,2 5,0 5,9 4,8 5,0 6,2 22 12 32 18 SW 0,0
13.02.2019 01:00:00 5,9 4,7 5,7 4,8 5,0 6,2 22 12 25 14 SW 0,0
13.02.2019 00:00:00 6,1 4,8 5,8 4,7 5,0 6,2 18 10 32 18 SW 0,0
12.02.2019 23:00:00 5,9 4,5 5,3 4,7 5,0 6,2 22 12 32 18 WSW 0,0
12.02.2019 22:00:00 5,6 4,1 5,1 4,8 5,0 6,2 25 14 32 18 SW 0,0
12.02.2019 21:00:00 5,7 3,8 5,2 4,9 5,0 6,2 22 12 32 18 SW 0,0
12.02.2019 20:00:00 6,1 3,7 5,4 5,0 5,0 6,2 22 12 29 16 SW 0,0
12.02.2019 19:00:00 5,5 3,8 4,8 5,2 5,0 6,2 18 10 25 14 SSW 0,0
12.02.2019 18:00:00 6,9 3,9 6,2 5,4 5,0 6,2 18 10 25 14 SW 0,0
12.02.2019 17:00:00 7,1 4,4 6,5 5,6 4,9 6,2 18 10 32 18 WSW 0,0
12.02.2019 16:00:00 8,2 4,6 7,9 5,7 4,8 6,2 25 14 36 19 WSW 0,0
12.02.2019 15:00:00 8,2 4,8 8,0 5,5 4,6 6,2 22 12 32 18 WSW 0,0
12.02.2019 14:00:00 7,9 5,4 8,3 5,2 4,5 6,1 22 12 32 18 WSW 0,0
12.02.2019 13:00:00 7,6 5,1 8,1 4,7 4,4 6,1 22 12 29 16 WSW 0,0
12.02.2019 12:00:00 6,7 4,8 6,8 4,2 4,4 6,1 18 10 25 14 WSW 0,0
12.02.2019 11:00:00 5,0 3,7 4,8 3,8 4,4 6,1 14 8 18 10 WSW 0,0
12.02.2019 10:00:00 3,8 2,9 3,6 3,6 4,4 6,1 11 6 11 6 WSW 0,0
12.02.2019 09:00:00 3,0 2,2 2,6 3,4 4,5 6,1 11 6 18 10 WSW 0,0
12.02.2019 08:00:00 2,5 1,5 1,8 3,5 4,5 6,1 14 8 22 12 W 0,0
12.02.2019 07:00:00 2,3 1,4 1,8 3,6 4,6 6,1 11 6 22 12 WNW 0,1
12.02.2019 06:00:00 2,2 1,4 1,6 3,7 4,6 6,1 14 8 25 14 W 0,1
12.02.2019 05:00:00 3,0 1,5 2,4 3,7 4,7 6,1 18 10 25 14 W 0,0
12.02.2019 04:00:00 2,7 1,6 2,4 3,8 4,7 6,1 18 10 29 16 W 0,0
12.02.2019 03:00:00 2,8 1,3 2,1 3,8 4,8 6,1 18 10 32 18 W 0,0
12.02.2019 02:00:00 3,0 0,7 2,0 4,0 4,9 6,1 18 10 29 16 W 0,0
12.02.2019 01:00:00 3,1 0,9 2,4 4,2 4,9 6,1 22 12 29 16 W 0,0
12.02.2019 00:00:00 3,8 1,3 3,2 4,3 5,0 6,1 22 12 29 16 W 0,0
11.02.2019 23:00:00 3,4 0,8 2,9 4,4 5,0 6,1 18 10 32 18 WNW 0,0
11.02.2019 22:00:00 3,8 1,3 3,1 4,5 5,1 6,1 18 10 40 21 WNW 0,1
11.02.2019 21:00:00 4,3 1,0 4,1 4,6 5,1 6,1 18 10 40 21 W 0,0
11.02.2019 20:00:00 5,2 -0,5 4,4 4,7 5,2 6,1 22 12 40 21 NW 0,0
11.02.2019 19:00:00 4,6 0,4 3,8 4,9 5,2 6,1 22 12 43 23 NW 0,0
11.02.2019 18:00:00 5,3 0,2 4,8 5,1 5,2 6,0 25 14 40 21 NW 0,0
11.02.2019 17:00:00 5,5 0,2 5,0 5,3 5,2 6,0 29 16 43 23 NNW 0,0
11.02.2019 16:00:00 6,1 1,2 5,7 5,5 5,1 6,0 25 14 43 23 NNW 0,0
11.02.2019 15:00:00 5,8 2,1 5,8 5,5 5,1 6,0 32 18 50 27 NNW 0,0
11.02.2019 14:00:00 6,9 1,3 7,2 5,4 5,0 6,0 40 21 54 29 NNW 0,0
11.02.2019 13:00:00 7,3 2,7 7,5 5,2 5,0 6,0 40 21 58 31 NW 0,0

tt = Température de l'air
td = dewpoint
tt 5cm = Température de l'air 5cm
tt -5cm = Température de l'air -5cm
tt -20cm = Température de l'air -20cm
tt -100cm = Température de l'air -100cm
ff = Vitesse du vent
fx = gusts
dd = Direction du vent
rr = Quantités de précipitations

stations d'obs. à proximité